sensor_id;sensor_type;location;lat;lon;timestamp;pressure;altitude;pressure_sealevel;temperature
71205;BMP180;58935;54.498;18.544;2023-06-14T00:01:45;100961.20;;;15.04
71205;BMP180;58935;54.498;18.544;2023-06-14T00:04:12;100952.80;;;15.00
71205;BMP180;58935;54.498;18.544;2023-06-14T00:06:39;100957.00;;;14.90
71205;BMP180;58935;54.498;18.544;2023-06-14T00:09:06;100953.00;;;14.80
71205;BMP180;58935;54.498;18.544;2023-06-14T00:11:34;100953.20;;;14.74
71205;BMP180;58935;54.498;18.544;2023-06-14T00:13:59;100951.60;;;14.70
71205;BMP180;58935;54.498;18.544;2023-06-14T00:16:25;100951.00;;;14.62
71205;BMP180;58935;54.498;18.544;2023-06-14T00:18:50;100943.40;;;14.60
71205;BMP180;58935;54.498;18.544;2023-06-14T00:21:17;100934.80;;;14.50
71205;BMP180;58935;54.498;18.544;2023-06-14T00:23:43;100936.20;;;14.50
71205;BMP180;58935;54.498;18.544;2023-06-14T00:26:09;100932.20;;;14.50
71205;BMP180;58935;54.498;18.544;2023-06-14T00:28:34;100929.00;;;14.40
71205;BMP180;58935;54.498;18.544;2023-06-14T00:31:00;100923.60;;;14.40
71205;BMP180;58935;54.498;18.544;2023-06-14T00:33:25;100927.80;;;14.40
71205;BMP180;58935;54.498;18.544;2023-06-14T00:35:51;100931.60;;;14.40
71205;BMP180;58935;54.498;18.544;2023-06-14T00:38:20;100926.60;;;14.40
71205;BMP180;58935;54.498;18.544;2023-06-14T00:40:46;100920.60;;;14.40
71205;BMP180;58935;54.498;18.544;2023-06-14T00:43:12;100926.20;;;14.40
71205;BMP180;58935;54.498;18.544;2023-06-14T00:45:38;100929.00;;;14.40
71205;BMP180;58935;54.498;18.544;2023-06-14T00:48:06;100930.40;;;14.40
71205;BMP180;58935;54.498;18.544;2023-06-14T00:50:33;100928.40;;;14.40
71205;BMP180;58935;54.498;18.544;2023-06-14T00:53:00;100929.80;;;14.40
71205;BMP180;58935;54.498;18.544;2023-06-14T00:55:27;100926.20;;;14.40
71205;BMP180;58935;54.498;18.544;2023-06-14T00:57:55;100929.00;;;14.38
71205;BMP180;58935;54.498;18.544;2023-06-14T01:00:21;100925.80;;;14.32
71205;BMP180;58935;54.498;18.544;2023-06-14T01:02:47;100928.20;;;14.30
71205;BMP180;58935;54.498;18.544;2023-06-14T01:05:16;100927.20;;;14.30
71205;BMP180;58935;54.498;18.544;2023-06-14T01:13:08;100923.00;;;14.20
71205;BMP180;58935;54.498;18.544;2023-06-14T01:15:38;100923.60;;;14.20
71205;BMP180;58935;54.498;18.544;2023-06-14T01:18:05;100918.80;;;14.20
71205;BMP180;58935;54.498;18.544;2023-06-14T01:20:33;100917.00;;;14.14
71205;BMP180;58935;54.498;18.544;2023-06-14T01:23:02;100917.60;;;14.10
71205;BMP180;58935;54.498;18.544;2023-06-14T01:25:27;100915.60;;;14.10
71205;BMP180;58935;54.498;18.544;2023-06-14T01:27:59;100916.20;;;14.10
71205;BMP180;58935;54.498;18.544;2023-06-14T01:30:26;100908.60;;;14.10
71205;BMP180;58935;54.498;18.544;2023-06-14T01:32:56;100909.40;;;14.10
71205;BMP180;58935;54.498;18.544;2023-06-14T01:35:22;100907.60;;;14.10
71205;BMP180;58935;54.498;18.544;2023-06-14T01:37:49;100906.80;;;14.02
71205;BMP180;58935;54.498;18.544;2023-06-14T01:40:17;100907.60;;;14.00
71205;BMP180;58935;54.498;18.544;2023-06-14T01:42:46;100904.80;;;14.00
71205;BMP180;58935;54.498;18.544;2023-06-14T01:45:13;100904.80;;;14.00
71205;BMP180;58935;54.498;18.544;2023-06-14T01:47:40;100903.20;;;14.00
71205;BMP180;58935;54.498;18.544;2023-06-14T01:50:06;100904.40;;;13.96
71205;BMP180;58935;54.498;18.544;2023-06-14T01:52:32;100904.00;;;13.90
71205;BMP180;58935;54.498;18.544;2023-06-14T01:54:57;100906.20;;;13.90
71205;BMP180;58935;54.498;18.544;2023-06-14T01:57:25;100905.80;;;13.90
71205;BMP180;58935;54.498;18.544;2023-06-14T01:59:52;100906.20;;;13.86
71205;BMP180;58935;54.498;18.544;2023-06-14T02:02:18;100903.20;;;13.80
71205;BMP180;58935;54.498;18.544;2023-06-14T02:04:43;100905.20;;;13.80
71205;BMP180;58935;54.498;18.544;2023-06-14T02:07:09;100901.40;;;13.70
71205;BMP180;58935;54.498;18.544;2023-06-14T02:09:35;100905.40;;;13.70
71205;BMP180;58935;54.498;18.544;2023-06-14T02:12:01;100900.60;;;13.70
71205;BMP180;58935;54.498;18.544;2023-06-14T02:14:27;100900.60;;;13.70
71205;BMP180;58935;54.498;18.544;2023-06-14T02:16:53;100899.00;;;13.70
71205;BMP180;58935;54.498;18.544;2023-06-14T02:19:19;100902.00;;;13.62
71205;BMP180;58935;54.498;18.544;2023-06-14T02:21:47;100900.40;;;13.60
71205;BMP180;58935;54.498;18.544;2023-06-14T02:24:13;100899.20;;;13.60
71205;BMP180;58935;54.498;18.544;2023-06-14T02:26:41;100896.20;;;13.60
71205;BMP180;58935;54.498;18.544;2023-06-14T02:29:07;100899.60;;;13.60
71205;BMP180;58935;54.498;18.544;2023-06-14T02:31:36;100901.60;;;13.60
71205;BMP180;58935;54.498;18.544;2023-06-14T02:34:02;100899.00;;;13.60
71205;BMP180;58935;54.498;18.544;2023-06-14T02:36:28;100901.20;;;13.60
71205;BMP180;58935;54.498;18.544;2023-06-14T02:38:56;100901.20;;;13.60
71205;BMP180;58935;54.498;18.544;2023-06-14T02:41:24;100902.00;;;13.60
71205;BMP180;58935;54.498;18.544;2023-06-14T02:43:51;100896.40;;;13.60
71205;BMP180;58935;54.498;18.544;2023-06-14T02:46:17;100898.00;;;13.66
71205;BMP180;58935;54.498;18.544;2023-06-14T02:48:43;100892.80;;;13.70
71205;BMP180;58935;54.498;18.544;2023-06-14T02:51:09;100893.80;;;13.70
71205;BMP180;58935;54.498;18.544;2023-06-14T02:53:35;100896.00;;;13.80
71205;BMP180;58935;54.498;18.544;2023-06-14T02:56:02;100893.20;;;13.82
71205;BMP180;58935;54.498;18.544;2023-06-14T02:58:31;100895.20;;;13.90
71205;BMP180;58935;54.498;18.544;2023-06-14T03:00:58;100894.00;;;14.00
71205;BMP180;58935;54.498;18.544;2023-06-14T03:03:29;100893.40;;;14.00
71205;BMP180;58935;54.498;18.544;2023-06-14T03:05:55;100895.20;;;14.10
71205;BMP180;58935;54.498;18.544;2023-06-14T03:08:21;100892.40;;;14.20
71205;BMP180;58935;54.498;18.544;2023-06-14T03:10:52;100892.20;;;14.20
71205;BMP180;58935;54.498;18.544;2023-06-14T03:13:18;100891.40;;;14.36
71205;BMP180;58935;54.498;18.544;2023-06-14T03:15:47;100889.60;;;14.60
71205;BMP180;58935;54.498;18.544;2023-06-14T03:18:13;100891.00;;;15.22
71205;BMP180;58935;54.498;18.544;2023-06-14T03:20:40;100887.80;;;15.58
71205;BMP180;58935;54.498;18.544;2023-06-14T03:23:08;100900.20;;;15.60
71205;BMP180;58935;54.498;18.544;2023-06-14T03:25:34;100899.00;;;15.60
71205;BMP180;58935;54.498;18.544;2023-06-14T03:28:04;100902.80;;;15.50
71205;BMP180;58935;54.498;18.544;2023-06-14T03:30:31;100899.40;;;15.40
71205;BMP180;58935;54.498;18.544;2023-06-14T03:32:57;100901.20;;;15.30
71205;BMP180;58935;54.498;18.544;2023-06-14T03:35:23;100902.00;;;15.30
71205;BMP180;58935;54.498;18.544;2023-06-14T03:37:52;100903.20;;;15.28
71205;BMP180;58935;54.498;18.544;2023-06-14T03:40:19;100907.60;;;15.20
71205;BMP180;58935;54.498;18.544;2023-06-14T03:42:45;100908.60;;;15.20
71205;BMP180;58935;54.498;18.544;2023-06-14T03:45:11;100908.00;;;15.18
71205;BMP180;58935;54.498;18.544;2023-06-14T03:47:36;100907.40;;;15.10
71205;BMP180;58935;54.498;18.544;2023-06-14T03:50:04;100905.80;;;15.10
71205;BMP180;58935;54.498;18.544;2023-06-14T03:52:30;100908.80;;;15.10
71205;BMP180;58935;54.498;18.544;2023-06-14T03:54:58;100907.80;;;15.18
71205;BMP180;58935;54.498;18.544;2023-06-14T03:57:25;100909.40;;;15.20
71205;BMP180;58935;54.498;18.544;2023-06-14T03:59:52;100911.40;;;15.28
71205;BMP180;58935;54.498;18.544;2023-06-14T04:02:17;100913.60;;;15.30
71205;BMP180;58935;54.498;18.544;2023-06-14T04:04:44;100912.60;;;15.40
71205;BMP180;58935;54.498;18.544;2023-06-14T04:07:12;100913.80;;;15.40
71205;BMP180;58935;54.498;18.544;2023-06-14T04:09:39;100910.20;;;15.50
71205;BMP180;58935;54.498;18.544;2023-06-14T04:12:07;100907.20;;;15.60
71205;BMP180;58935;54.498;18.544;2023-06-14T04:14:37;100904.40;;;15.70
71205;BMP180;58935;54.498;18.544;2023-06-14T04:17:03;100908.40;;;15.80
71205;BMP180;58935;54.498;18.544;2023-06-14T04:19:29;100916.80;;;15.80
71205;BMP180;58935;54.498;18.544;2023-06-14T04:21:55;100917.20;;;15.90
71205;BMP180;58935;54.498;18.544;2023-06-14T04:24:20;100919.60;;;15.90
71205;BMP180;58935;54.498;18.544;2023-06-14T04:26:48;100914.80;;;15.90
71205;BMP180;58935;54.498;18.544;2023-06-14T04:29:15;100914.20;;;16.00
71205;BMP180;58935;54.498;18.544;2023-06-14T04:31:42;100907.20;;;16.00
71205;BMP180;58935;54.498;18.544;2023-06-14T04:34:10;100912.20;;;16.10
71205;BMP180;58935;54.498;18.544;2023-06-14T04:36:42;100911.20;;;16.20
71205;BMP180;58935;54.498;18.544;2023-06-14T04:39:11;100910.60;;;16.20
71205;BMP180;58935;54.498;18.544;2023-06-14T04:41:40;100915.00;;;16.30
71205;BMP180;58935;54.498;18.544;2023-06-14T04:44:06;100915.60;;;16.30
71205;BMP180;58935;54.498;18.544;2023-06-14T04:46:36;100913.20;;;16.40
71205;BMP180;58935;54.498;18.544;2023-06-14T04:49:13;100914.40;;;16.50
71205;BMP180;58935;54.498;18.544;2023-06-14T04:51:42;100913.60;;;16.60
71205;BMP180;58935;54.498;18.544;2023-06-14T04:54:09;100914.60;;;16.60
71205;BMP180;58935;54.498;18.544;2023-06-14T04:56:38;100909.20;;;16.60
71205;BMP180;58935;54.498;18.544;2023-06-14T04:59:08;100909.80;;;16.68
71205;BMP180;58935;54.498;18.544;2023-06-14T05:01:34;100902.60;;;16.70
71205;BMP180;58935;54.498;18.544;2023-06-14T05:04:00;100909.00;;;16.80
71205;BMP180;58935;54.498;18.544;2023-06-14T05:06:26;100906.80;;;16.88
71205;BMP180;58935;54.498;18.544;2023-06-14T05:08:53;100913.20;;;16.90
71205;BMP180;58935;54.498;18.544;2023-06-14T05:11:19;100913.40;;;16.92
71205;BMP180;58935;54.498;18.544;2023-06-14T05:13:45;100921.00;;;17.00
71205;BMP180;58935;54.498;18.544;2023-06-14T05:16:16;100922.00;;;17.00
71205;BMP180;58935;54.498;18.544;2023-06-14T05:18:45;100923.60;;;17.00
71205;BMP180;58935;54.498;18.544;2023-06-14T05:21:12;100920.80;;;17.00
71205;BMP180;58935;54.498;18.544;2023-06-14T05:23:38;100925.20;;;17.00
71205;BMP180;58935;54.498;18.544;2023-06-14T05:26:03;100926.80;;;17.02
71205;BMP180;58935;54.498;18.544;2023-06-14T05:28:30;100925.00;;;17.10
71205;BMP180;58935;54.498;18.544;2023-06-14T05:30:56;100919.80;;;17.10
71205;BMP180;58935;54.498;18.544;2023-06-14T05:33:23;100918.00;;;17.12
71205;BMP180;58935;54.498;18.544;2023-06-14T05:35:49;100924.60;;;17.20
71205;BMP180;58935;54.498;18.544;2023-06-14T05:38:16;100920.80;;;17.30
71205;BMP180;58935;54.498;18.544;2023-06-14T05:40:44;100920.20;;;17.30
71205;BMP180;58935;54.498;18.544;2023-06-14T05:43:10;100919.60;;;17.30
71205;BMP180;58935;54.498;18.544;2023-06-14T05:45:38;100921.00;;;17.40
71205;BMP180;58935;54.498;18.544;2023-06-14T05:48:04;100921.80;;;17.40
71205;BMP180;58935;54.498;18.544;2023-06-14T05:50:31;100923.60;;;17.48
71205;BMP180;58935;54.498;18.544;2023-06-14T05:52:57;100928.20;;;17.50
71205;BMP180;58935;54.498;18.544;2023-06-14T05:55:22;100928.00;;;17.60
71205;BMP180;58935;54.498;18.544;2023-06-14T05:57:48;100933.80;;;17.68
71205;BMP180;58935;54.498;18.544;2023-06-14T06:00:14;100929.00;;;17.70
71205;BMP180;58935;54.498;18.544;2023-06-14T06:02:43;100929.40;;;17.80
71205;BMP180;58935;54.498;18.544;2023-06-14T06:05:10;100930.60;;;17.90
71205;BMP180;58935;54.498;18.544;2023-06-14T06:07:37;100929.60;;;17.94
71205;BMP180;58935;54.498;18.544;2023-06-14T06:10:04;100931.40;;;18.00
71205;BMP180;58935;54.498;18.544;2023-06-14T06:12:31;100935.40;;;18.06
71205;BMP180;58935;54.498;18.544;2023-06-14T06:14:56;100935.20;;;18.10
71205;BMP180;58935;54.498;18.544;2023-06-14T06:17:25;100934.00;;;18.10
71205;BMP180;58935;54.498;18.544;2023-06-14T06:19:53;100935.00;;;18.20
71205;BMP180;58935;54.498;18.544;2023-06-14T06:22:19;100936.60;;;18.20
71205;BMP180;58935;54.498;18.544;2023-06-14T06:24:44;100941.40;;;18.30
71205;BMP180;58935;54.498;18.544;2023-06-14T06:27:12;100938.60;;;18.32
71205;BMP180;58935;54.498;18.544;2023-06-14T06:29:38;100944.20;;;18.40
71205;BMP180;58935;54.498;18.544;2023-06-14T06:32:04;100945.80;;;18.50
71205;BMP180;58935;54.498;18.544;2023-06-14T06:34:32;100948.20;;;18.60
71205;BMP180;58935;54.498;18.544;2023-06-14T06:36:57;100945.80;;;18.60
71205;BMP180;58935;54.498;18.544;2023-06-14T06:39:23;100948.00;;;18.70
71205;BMP180;58935;54.498;18.544;2023-06-14T06:41:50;100948.00;;;18.76
71205;BMP180;58935;54.498;18.544;2023-06-14T06:44:18;100944.80;;;18.82
71205;BMP180;58935;54.498;18.544;2023-06-14T06:46:44;100950.60;;;18.90
71205;BMP180;58935;54.498;18.544;2023-06-14T06:49:10;100958.40;;;18.90
71205;BMP180;58935;54.498;18.544;2023-06-14T06:51:40;100958.20;;;19.00
71205;BMP180;58935;54.498;18.544;2023-06-14T06:54:07;100960.20;;;19.00
71205;BMP180;58935;54.498;18.544;2023-06-14T06:56:33;100963.60;;;19.06
71205;BMP180;58935;54.498;18.544;2023-06-14T06:59:02;100968.40;;;19.10
71205;BMP180;58935;54.498;18.544;2023-06-14T07:01:32;100967.20;;;19.10
71205;BMP180;58935;54.498;18.544;2023-06-14T07:04:01;100973.20;;;19.20
71205;BMP180;58935;54.498;18.544;2023-06-14T07:06:27;100969.20;;;19.30
71205;BMP180;58935;54.498;18.544;2023-06-14T07:08:53;100969.00;;;19.30
71205;BMP180;58935;54.498;18.544;2023-06-14T07:11:18;100970.40;;;19.30
71205;BMP180;58935;54.498;18.544;2023-06-14T07:13:43;100967.80;;;19.34
71205;BMP180;58935;54.498;18.544;2023-06-14T07:16:11;100966.20;;;19.38
71205;BMP180;58935;54.498;18.544;2023-06-14T07:18:39;100966.80;;;19.30
71205;BMP180;58935;54.498;18.544;2023-06-14T07:21:05;100968.40;;;19.34
71205;BMP180;58935;54.498;18.544;2023-06-14T07:23:30;100967.00;;;19.30
71205;BMP180;58935;54.498;18.544;2023-06-14T07:25:56;100973.00;;;19.40
71205;BMP180;58935;54.498;18.544;2023-06-14T07:28:23;100972.60;;;19.50
71205;BMP180;58935;54.498;18.544;2023-06-14T07:30:53;100974.40;;;19.60
71205;BMP180;58935;54.498;18.544;2023-06-14T07:33:21;100970.20;;;19.60
71205;BMP180;58935;54.498;18.544;2023-06-14T07:35:47;100972.40;;;19.72
71205;BMP180;58935;54.498;18.544;2023-06-14T07:38:13;100972.60;;;19.80
71205;BMP180;58935;54.498;18.544;2023-06-14T07:40:41;100974.00;;;19.80
71205;BMP180;58935;54.498;18.544;2023-06-14T07:43:06;100976.20;;;19.80
71205;BMP180;58935;54.498;18.544;2023-06-14T07:45:31;100979.00;;;19.80
71205;BMP180;58935;54.498;18.544;2023-06-14T07:47:59;100985.20;;;19.90
71205;BMP180;58935;54.498;18.544;2023-06-14T07:50:28;100983.40;;;19.90
71205;BMP180;58935;54.498;18.544;2023-06-14T07:58:14;100980.40;;;19.90
71205;BMP180;58935;54.498;18.544;2023-06-14T08:05:55;100983.80;;;20.00
71205;BMP180;58935;54.498;18.544;2023-06-14T08:11:03;100979.80;;;19.98
71205;BMP180;58935;54.498;18.544;2023-06-14T08:16:13;100980.40;;;20.00
71205;BMP180;58935;54.498;18.544;2023-06-14T08:18:41;100982.80;;;20.00
71205;BMP180;58935;54.498;18.544;2023-06-14T08:21:06;100986.60;;;20.00
71205;BMP180;58935;54.498;18.544;2023-06-14T08:23:32;100986.80;;;19.90
71205;BMP180;58935;54.498;18.544;2023-06-14T08:28:32;100989.20;;;20.00
71205;BMP180;58935;54.498;18.544;2023-06-14T08:30:58;100986.00;;;20.00
71205;BMP180;58935;54.498;18.544;2023-06-14T08:33:23;100985.40;;;20.00
71205;BMP180;58935;54.498;18.544;2023-06-14T08:35:51;100988.40;;;20.00
71205;BMP180;58935;54.498;18.544;2023-06-14T08:38:19;100991.20;;;20.10
71205;BMP180;58935;54.498;18.544;2023-06-14T08:40:47;100992.40;;;20.12
71205;BMP180;58935;54.498;18.544;2023-06-14T08:43:13;100995.20;;;20.20
71205;BMP180;58935;54.498;18.544;2023-06-14T08:45:39;100990.60;;;20.20
71205;BMP180;58935;54.498;18.544;2023-06-14T08:48:07;100995.00;;;20.20
71205;BMP180;58935;54.498;18.544;2023-06-14T08:50:38;101000.20;;;20.20
71205;BMP180;58935;54.498;18.544;2023-06-14T08:53:13;100993.60;;;20.20
71205;BMP180;58935;54.498;18.544;2023-06-14T08:55:45;100995.80;;;20.30
71205;BMP180;58935;54.498;18.544;2023-06-14T08:58:11;100993.40;;;20.40
71205;BMP180;58935;54.498;18.544;2023-06-14T09:00:40;100997.00;;;20.40
71205;BMP180;58935;54.498;18.544;2023-06-14T09:03:07;101002.00;;;20.44
71205;BMP180;58935;54.498;18.544;2023-06-14T09:05:39;100994.80;;;20.40
71205;BMP180;58935;54.498;18.544;2023-06-14T09:08:05;100996.40;;;20.40
71205;BMP180;58935;54.498;18.544;2023-06-14T09:10:31;100998.20;;;20.30
71205;BMP180;58935;54.498;18.544;2023-06-14T09:13:01;100996.40;;;20.40
71205;BMP180;58935;54.498;18.544;2023-06-14T09:15:27;100992.40;;;20.30
71205;BMP180;58935;54.498;18.544;2023-06-14T09:17:53;100990.40;;;20.20
71205;BMP180;58935;54.498;18.544;2023-06-14T09:20:18;100988.60;;;20.20
71205;BMP180;58935;54.498;18.544;2023-06-14T09:22:44;100988.40;;;20.20
71205;BMP180;58935;54.498;18.544;2023-06-14T09:25:10;100987.20;;;20.38
71205;BMP180;58935;54.498;18.544;2023-06-14T09:27:38;100985.00;;;20.50
71205;BMP180;58935;54.498;18.544;2023-06-14T09:30:08;100981.40;;;20.60
71205;BMP180;58935;54.498;18.544;2023-06-14T09:32:39;100984.80;;;20.70
71205;BMP180;58935;54.498;18.544;2023-06-14T09:35:07;100986.00;;;20.70
71205;BMP180;58935;54.498;18.544;2023-06-14T09:37:33;100987.60;;;20.70
71205;BMP180;58935;54.498;18.544;2023-06-14T09:39:59;100993.80;;;20.70
71205;BMP180;58935;54.498;18.544;2023-06-14T09:42:27;100992.00;;;20.54
71205;BMP180;58935;54.498;18.544;2023-06-14T09:44:55;100993.40;;;20.32
71205;BMP180;58935;54.498;18.544;2023-06-14T09:47:25;100991.60;;;20.20
71205;BMP180;58935;54.498;18.544;2023-06-14T09:49:54;100995.20;;;20.06
71205;BMP180;58935;54.498;18.544;2023-06-14T09:52:22;100997.80;;;19.90
71205;BMP180;58935;54.498;18.544;2023-06-14T09:54:49;100997.60;;;19.80
71205;BMP180;58935;54.498;18.544;2023-06-14T09:57:20;100995.60;;;19.80
71205;BMP180;58935;54.498;18.544;2023-06-14T09:59:56;100990.40;;;19.80
71205;BMP180;58935;54.498;18.544;2023-06-14T10:02:28;100986.60;;;19.90
71205;BMP180;58935;54.498;18.544;2023-06-14T10:05:04;100988.00;;;19.90
71205;BMP180;58935;54.498;18.544;2023-06-14T10:07:48;100984.60;;;19.90
71205;BMP180;58935;54.498;18.544;2023-06-14T10:10:16;100985.20;;;20.02
71205;BMP180;58935;54.498;18.544;2023-06-14T10:12:45;100978.80;;;20.06
71205;BMP180;58935;54.498;18.544;2023-06-14T10:15:20;100979.40;;;20.14
71205;BMP180;58935;54.498;18.544;2023-06-14T10:17:56;100977.80;;;20.30
71205;BMP180;58935;54.498;18.544;2023-06-14T10:20:33;100977.00;;;20.50
71205;BMP180;58935;54.498;18.544;2023-06-14T10:23:10;100980.20;;;20.60
71205;BMP180;58935;54.498;18.544;2023-06-14T10:25:38;100973.00;;;20.58
71205;BMP180;58935;54.498;18.544;2023-06-14T10:28:16;100970.40;;;20.50
71205;BMP180;58935;54.498;18.544;2023-06-14T10:33:17;100976.80;;;20.60
71205;BMP180;58935;54.498;18.544;2023-06-14T10:35:42;100975.80;;;20.50
71205;BMP180;58935;54.498;18.544;2023-06-14T10:38:11;100972.80;;;20.50
71205;BMP180;58935;54.498;18.544;2023-06-14T10:40:38;100978.00;;;20.44
71205;BMP180;58935;54.498;18.544;2023-06-14T10:43:20;100979.00;;;20.30
71205;BMP180;58935;54.498;18.544;2023-06-14T10:48:29;100975.60;;;20.20
71205;BMP180;58935;54.498;18.544;2023-06-14T10:51:00;100978.80;;;20.20
71205;BMP180;58935;54.498;18.544;2023-06-14T10:53:27;100978.20;;;20.20
71205;BMP180;58935;54.498;18.544;2023-06-14T10:55:56;100974.00;;;20.26
71205;BMP180;58935;54.498;18.544;2023-06-14T10:58:21;100976.60;;;20.30
71205;BMP180;58935;54.498;18.544;2023-06-14T11:00:49;100973.00;;;20.40
71205;BMP180;58935;54.498;18.544;2023-06-14T11:03:36;100969.60;;;20.42
71205;BMP180;58935;54.498;18.544;2023-06-14T11:06:15;100973.00;;;20.50
71205;BMP180;58935;54.498;18.544;2023-06-14T11:11:41;100972.80;;;20.50
71205;BMP180;58935;54.498;18.544;2023-06-14T11:14:07;100970.60;;;20.40
71205;BMP180;58935;54.498;18.544;2023-06-14T11:16:35;100970.20;;;20.44
71205;BMP180;58935;54.498;18.544;2023-06-14T11:19:01;100973.00;;;20.40
71205;BMP180;58935;54.498;18.544;2023-06-14T11:21:29;100963.20;;;20.40
71205;BMP180;58935;54.498;18.544;2023-06-14T11:23:57;100970.60;;;20.50
71205;BMP180;58935;54.498;18.544;2023-06-14T11:26:28;100970.20;;;20.60
71205;BMP180;58935;54.498;18.544;2023-06-14T11:28:59;100977.80;;;20.60
71205;BMP180;58935;54.498;18.544;2023-06-14T11:31:26;100976.60;;;20.60
71205;BMP180;58935;54.498;18.544;2023-06-14T11:33:55;100980.00;;;20.70
71205;BMP180;58935;54.498;18.544;2023-06-14T11:36:23;100972.80;;;20.70
71205;BMP180;58935;54.498;18.544;2023-06-14T11:38:49;100973.00;;;20.76
71205;BMP180;58935;54.498;18.544;2023-06-14T11:41:14;100977.80;;;20.80
71205;BMP180;58935;54.498;18.544;2023-06-14T11:43:40;100974.60;;;20.80
71205;BMP180;58935;54.498;18.544;2023-06-14T11:46:13;100969.20;;;20.80
71205;BMP180;58935;54.498;18.544;2023-06-14T11:48:48;100967.80;;;20.80
71205;BMP180;58935;54.498;18.544;2023-06-14T11:51:16;100969.80;;;20.70
71205;BMP180;58935;54.498;18.544;2023-06-14T11:53:43;100967.00;;;20.76
71205;BMP180;58935;54.498;18.544;2023-06-14T11:56:08;100957.40;;;20.96
71205;BMP180;58935;54.498;18.544;2023-06-14T11:58:34;100962.60;;;21.10
71205;BMP180;58935;54.498;18.544;2023-06-14T12:01:03;100961.20;;;21.00
71205;BMP180;58935;54.498;18.544;2023-06-14T12:03:28;100953.20;;;21.00
71205;BMP180;58935;54.498;18.544;2023-06-14T12:06:03;100955.40;;;21.12
71205;BMP180;58935;54.498;18.544;2023-06-14T12:08:35;100959.60;;;21.20
71205;BMP180;58935;54.498;18.544;2023-06-14T12:11:05;100955.60;;;21.20
71205;BMP180;58935;54.498;18.544;2023-06-14T12:13:31;100947.00;;;21.28
71205;BMP180;58935;54.498;18.544;2023-06-14T12:15:57;100945.20;;;21.40
71205;BMP180;58935;54.498;18.544;2023-06-14T12:18:32;100957.40;;;21.50
71205;BMP180;58935;54.498;18.544;2023-06-14T12:21:00;100950.20;;;21.40
71205;BMP180;58935;54.498;18.544;2023-06-14T12:23:49;100959.00;;;21.30
71205;BMP180;58935;54.498;18.544;2023-06-14T12:26:17;100947.20;;;21.20
71205;BMP180;58935;54.498;18.544;2023-06-14T12:28:45;100957.20;;;21.10
71205;BMP180;58935;54.498;18.544;2023-06-14T12:31:15;100942.00;;;21.10
71205;BMP180;58935;54.498;18.544;2023-06-14T12:33:42;100948.40;;;21.00
71205;BMP180;58935;54.498;18.544;2023-06-14T12:36:10;100939.40;;;21.00
71205;BMP180;58935;54.498;18.544;2023-06-14T12:38:37;100948.20;;;21.00
71205;BMP180;58935;54.498;18.544;2023-06-14T12:41:03;100950.40;;;20.90
71205;BMP180;58935;54.498;18.544;2023-06-14T12:43:29;100944.00;;;20.80
71205;BMP180;58935;54.498;18.544;2023-06-14T12:45:55;100946.60;;;20.80
71205;BMP180;58935;54.498;18.544;2023-06-14T12:48:22;100943.60;;;20.80
71205;BMP180;58935;54.498;18.544;2023-06-14T12:50:47;100943.20;;;20.80
71205;BMP180;58935;54.498;18.544;2023-06-14T12:53:13;100931.60;;;20.92
71205;BMP180;58935;54.498;18.544;2023-06-14T12:55:39;100941.20;;;21.06
71205;BMP180;58935;54.498;18.544;2023-06-14T12:58:05;100942.00;;;21.16
71205;BMP180;58935;54.498;18.544;2023-06-14T13:00:31;100948.00;;;21.20
71205;BMP180;58935;54.498;18.544;2023-06-14T13:02:57;100943.00;;;21.10
71205;BMP180;58935;54.498;18.544;2023-06-14T13:05:24;100939.60;;;21.26
71205;BMP180;58935;54.498;18.544;2023-06-14T13:07:52;100948.80;;;21.30
71205;BMP180;58935;54.498;18.544;2023-06-14T13:10:18;100936.80;;;21.30
71205;BMP180;58935;54.498;18.544;2023-06-14T13:12:43;100937.20;;;21.30
71205;BMP180;58935;54.498;18.544;2023-06-14T13:15:09;100933.40;;;21.30
71205;BMP180;58935;54.498;18.544;2023-06-14T13:17:36;100931.20;;;21.40
71205;BMP180;58935;54.498;18.544;2023-06-14T13:20:06;100931.80;;;21.40
71205;BMP180;58935;54.498;18.544;2023-06-14T13:22:33;100928.60;;;21.20
71205;BMP180;58935;54.498;18.544;2023-06-14T13:24:58;100931.60;;;21.00
71205;BMP180;58935;54.498;18.544;2023-06-14T13:27:26;100925.80;;;20.90
71205;BMP180;58935;54.498;18.544;2023-06-14T13:29:53;100928.60;;;20.90
71205;BMP180;58935;54.498;18.544;2023-06-14T13:32:22;100924.00;;;20.90
71205;BMP180;58935;54.498;18.544;2023-06-14T13:34:48;100920.20;;;20.84
71205;BMP180;58935;54.498;18.544;2023-06-14T13:37:14;100919.00;;;20.88
71205;BMP180;58935;54.498;18.544;2023-06-14T13:39:40;100924.60;;;20.80
71205;BMP180;58935;54.498;18.544;2023-06-14T13:42:06;100920.20;;;20.70
71205;BMP180;58935;54.498;18.544;2023-06-14T13:44:32;100923.00;;;20.74
71205;BMP180;58935;54.498;18.544;2023-06-14T13:46:57;100921.80;;;20.80
71205;BMP180;58935;54.498;18.544;2023-06-14T13:49:23;100918.40;;;20.86
71205;BMP180;58935;54.498;18.544;2023-06-14T13:51:48;100915.20;;;20.80
71205;BMP180;58935;54.498;18.544;2023-06-14T13:54:14;100914.80;;;20.90
71205;BMP180;58935;54.498;18.544;2023-06-14T13:56:41;100916.60;;;20.82
71205;BMP180;58935;54.498;18.544;2023-06-14T13:59:07;100914.20;;;20.90
71205;BMP180;58935;54.498;18.544;2023-06-14T14:01:33;100914.60;;;20.80
71205;BMP180;58935;54.498;18.544;2023-06-14T14:04:01;100910.80;;;20.80
71205;BMP180;58935;54.498;18.544;2023-06-14T14:06:26;100917.00;;;21.00
71205;BMP180;58935;54.498;18.544;2023-06-14T14:08:52;100912.80;;;21.10
71205;BMP180;58935;54.498;18.544;2023-06-14T14:11:19;100913.00;;;21.10
71205;BMP180;58935;54.498;18.544;2023-06-14T14:13:46;100912.20;;;21.00
71205;BMP180;58935;54.498;18.544;2023-06-14T14:16:13;100913.40;;;21.00
71205;BMP180;58935;54.498;18.544;2023-06-14T14:18:39;100914.00;;;21.00